sensor_id;sensor_type;location;lat;lon;timestamp;temperature;humidity
429;DHT22;201;48.758;9.290;2024-03-07T00:00:06;5.90;20.40
429;DHT22;201;48.758;9.290;2024-03-07T00:02:46;5.80;20.30
429;DHT22;201;48.758;9.290;2024-03-07T00:05:14;5.80;20.30
429;DHT22;201;48.758;9.290;2024-03-07T00:07:39;5.70;20.10
429;DHT22;201;48.758;9.290;2024-03-07T00:10:05;5.70;20.00
429;DHT22;201;48.758;9.290;2024-03-07T00:12:36;5.60;19.90
429;DHT22;201;48.758;9.290;2024-03-07T00:15:09;5.50;19.50
429;DHT22;201;48.758;9.290;2024-03-07T00:17:36;5.50;19.00
429;DHT22;201;48.758;9.290;2024-03-07T00:20:02;5.40;18.10
429;DHT22;201;48.758;9.290;2024-03-07T00:22:37;5.40;17.50
429;DHT22;201;48.758;9.290;2024-03-07T00:25:04;5.30;15.60
429;DHT22;201;48.758;9.290;2024-03-07T00:27:31;5.20;14.30
429;DHT22;201;48.758;9.290;2024-03-07T00:29:59;5.10;15.00
429;DHT22;201;48.758;9.290;2024-03-07T00:32:24;5.10;13.80
429;DHT22;201;48.758;9.290;2024-03-07T00:34:50;5.10;13.20
429;DHT22;201;48.758;9.290;2024-03-07T00:37:16;5.00;12.70
429;DHT22;201;48.758;9.290;2024-03-07T00:39:42;5.00;12.20
429;DHT22;201;48.758;9.290;2024-03-07T00:42:08;5.10;12.40
429;DHT22;201;48.758;9.290;2024-03-07T00:44:33;5.10;12.50
429;DHT22;201;48.758;9.290;2024-03-07T00:47:02;5.10;11.80
429;DHT22;201;48.758;9.290;2024-03-07T00:49:29;5.10;10.80
429;DHT22;201;48.758;9.290;2024-03-07T00:51:56;5.20;10.70
429;DHT22;201;48.758;9.290;2024-03-07T00:54:21;5.20;10.40
429;DHT22;201;48.758;9.290;2024-03-07T00:56:48;5.20;9.80
429;DHT22;201;48.758;9.290;2024-03-07T00:59:15;5.20;9.80
429;DHT22;201;48.758;9.290;2024-03-07T01:01:41;5.20;9.60
429;DHT22;201;48.758;9.290;2024-03-07T01:04:07;5.10;9.10
429;DHT22;201;48.758;9.290;2024-03-07T01:06:33;5.10;8.60
429;DHT22;201;48.758;9.290;2024-03-07T01:08:59;5.00;8.10
429;DHT22;201;48.758;9.290;2024-03-07T01:11:24;5.00;7.30
429;DHT22;201;48.758;9.290;2024-03-07T01:13:50;5.00;6.90
429;DHT22;201;48.758;9.290;2024-03-07T01:16:15;5.00;6.90
429;DHT22;201;48.758;9.290;2024-03-07T01:18:41;5.00;6.90
429;DHT22;201;48.758;9.290;2024-03-07T01:21:07;5.00;6.20
429;DHT22;201;48.758;9.290;2024-03-07T01:23:33;5.00;4.50
429;DHT22;201;48.758;9.290;2024-03-07T01:25:59;5.00;4.90
429;DHT22;201;48.758;9.290;2024-03-07T01:28:26;5.00;5.20
429;DHT22;201;48.758;9.290;2024-03-07T01:30:56;5.00;4.20
429;DHT22;201;48.758;9.290;2024-03-07T01:33:22;4.90;4.10
429;DHT22;201;48.758;9.290;2024-03-07T01:35:48;4.90;4.80
429;DHT22;201;48.758;9.290;2024-03-07T01:38:14;4.90;4.80
429;DHT22;201;48.758;9.290;2024-03-07T01:40:40;4.90;4.50
429;DHT22;201;48.758;9.290;2024-03-07T01:43:07;4.90;3.90
429;DHT22;201;48.758;9.290;2024-03-07T01:45:33;4.80;3.90
429;DHT22;201;48.758;9.290;2024-03-07T01:47:59;4.80;4.20
429;DHT22;201;48.758;9.290;2024-03-07T01:50:24;4.70;3.80
429;DHT22;201;48.758;9.290;2024-03-07T01:52:50;4.70;3.70
429;DHT22;201;48.758;9.290;2024-03-07T01:55:17;4.80;3.60
429;DHT22;201;48.758;9.290;2024-03-07T01:57:43;4.80;3.70
429;DHT22;201;48.758;9.290;2024-03-07T02:00:09;4.80;3.60
429;DHT22;201;48.758;9.290;2024-03-07T02:02:36;4.80;2.40
429;DHT22;201;48.758;9.290;2024-03-07T02:05:01;4.70;2.30
429;DHT22;201;48.758;9.290;2024-03-07T02:07:27;4.70;2.30
429;DHT22;201;48.758;9.290;2024-03-07T02:10:06;4.80;2.30
429;DHT22;201;48.758;9.290;2024-03-07T02:12:32;4.70;2.50
429;DHT22;201;48.758;9.290;2024-03-07T02:14:58;4.60;2.30
429;DHT22;201;48.758;9.290;2024-03-07T02:17:26;4.60;2.80
429;DHT22;201;48.758;9.290;2024-03-07T02:19:52;4.60;2.70
429;DHT22;201;48.758;9.290;2024-03-07T02:22:21;4.60;2.60
429;DHT22;201;48.758;9.290;2024-03-07T02:24:47;4.50;2.80
429;DHT22;201;48.758;9.290;2024-03-07T02:27:13;4.40;2.70
429;DHT22;201;48.758;9.290;2024-03-07T02:29:42;4.20;3.00
429;DHT22;201;48.758;9.290;2024-03-07T02:32:08;4.10;3.50
429;DHT22;201;48.758;9.290;2024-03-07T02:34:35;4.00;3.30
429;DHT22;201;48.758;9.290;2024-03-07T02:37:01;3.90;4.00
429;DHT22;201;48.758;9.290;2024-03-07T02:39:26;3.90;4.60
429;DHT22;201;48.758;9.290;2024-03-07T02:41:52;3.80;4.90
429;DHT22;201;48.758;9.290;2024-03-07T02:44:17;3.80;5.10
429;DHT22;201;48.758;9.290;2024-03-07T02:46:43;3.70;5.30
429;DHT22;201;48.758;9.290;2024-03-07T02:49:08;3.70;5.10
429;DHT22;201;48.758;9.290;2024-03-07T02:51:34;3.60;5.60
429;DHT22;201;48.758;9.290;2024-03-07T02:54:00;3.60;5.90
429;DHT22;201;48.758;9.290;2024-03-07T02:56:26;3.50;5.80
429;DHT22;201;48.758;9.290;2024-03-07T02:58:51;3.50;5.80
429;DHT22;201;48.758;9.290;2024-03-07T03:01:17;3.40;5.80
429;DHT22;201;48.758;9.290;2024-03-07T03:03:43;3.40;5.80
429;DHT22;201;48.758;9.290;2024-03-07T03:06:09;3.40;5.80
429;DHT22;201;48.758;9.290;2024-03-07T03:08:35;3.40;5.80
429;DHT22;201;48.758;9.290;2024-03-07T03:11:01;3.30;5.70
429;DHT22;201;48.758;9.290;2024-03-07T03:13:27;3.30;5.70
429;DHT22;201;48.758;9.290;2024-03-07T03:15:56;3.30;5.70
429;DHT22;201;48.758;9.290;2024-03-07T03:18:24;3.30;5.70
429;DHT22;201;48.758;9.290;2024-03-07T03:20:50;3.20;5.70
429;DHT22;201;48.758;9.290;2024-03-07T03:23:16;3.20;5.60
429;DHT22;201;48.758;9.290;2024-03-07T03:25:42;3.10;5.50
429;DHT22;201;48.758;9.290;2024-03-07T03:28:09;3.00;5.50
429;DHT22;201;48.758;9.290;2024-03-07T03:30:38;3.00;5.50
429;DHT22;201;48.758;9.290;2024-03-07T03:33:04;2.90;5.40
429;DHT22;201;48.758;9.290;2024-03-07T03:35:31;2.90;5.40
429;DHT22;201;48.758;9.290;2024-03-07T03:37:56;2.90;5.40
429;DHT22;201;48.758;9.290;2024-03-07T03:40:22;2.90;5.40
429;DHT22;201;48.758;9.290;2024-03-07T03:42:48;2.80;5.40
429;DHT22;201;48.758;9.290;2024-03-07T03:45:14;2.80;5.40
429;DHT22;201;48.758;9.290;2024-03-07T03:47:41;2.80;5.40
429;DHT22;201;48.758;9.290;2024-03-07T03:50:09;2.80;5.40
429;DHT22;201;48.758;9.290;2024-03-07T03:52:35;2.80;5.40
429;DHT22;201;48.758;9.290;2024-03-07T03:55:01;2.80;5.40
429;DHT22;201;48.758;9.290;2024-03-07T03:57:28;2.80;5.40
429;DHT22;201;48.758;9.290;2024-03-07T03:59:54;2.70;5.30
429;DHT22;201;48.758;9.290;2024-03-07T04:02:20;2.60;5.20
429;DHT22;201;48.758;9.290;2024-03-07T04:04:48;2.60;5.20
429;DHT22;201;48.758;9.290;2024-03-07T04:07:14;2.60;5.50
429;DHT22;201;48.758;9.290;2024-03-07T04:09:41;2.60;6.00
429;DHT22;201;48.758;9.290;2024-03-07T04:12:07;2.60;5.90
429;DHT22;201;48.758;9.290;2024-03-07T04:14:42;2.60;5.90
429;DHT22;201;48.758;9.290;2024-03-07T04:17:08;2.50;5.70
429;DHT22;201;48.758;9.290;2024-03-07T04:19:40;2.60;6.20
429;DHT22;201;48.758;9.290;2024-03-07T04:22:06;2.60;6.20
429;DHT22;201;48.758;9.290;2024-03-07T04:24:34;2.60;5.60
429;DHT22;201;48.758;9.290;2024-03-07T04:27:04;2.70;5.30
429;DHT22;201;48.758;9.290;2024-03-07T04:29:30;2.60;5.20
429;DHT22;201;48.758;9.290;2024-03-07T04:31:56;2.70;5.30
429;DHT22;201;48.758;9.290;2024-03-07T04:34:21;2.60;5.20
429;DHT22;201;48.758;9.290;2024-03-07T04:36:47;2.60;5.20
429;DHT22;201;48.758;9.290;2024-03-07T04:39:12;2.60;5.20
429;DHT22;201;48.758;9.290;2024-03-07T04:41:51;2.60;5.20
429;DHT22;201;48.758;9.290;2024-03-07T04:44:18;2.50;5.10
429;DHT22;201;48.758;9.290;2024-03-07T04:46:44;2.50;5.10
429;DHT22;201;48.758;9.290;2024-03-07T04:49:10;2.40;5.10
429;DHT22;201;48.758;9.290;2024-03-07T04:51:36;2.30;5.00
429;DHT22;201;48.758;9.290;2024-03-07T04:54:01;2.30;5.00
429;DHT22;201;48.758;9.290;2024-03-07T04:56:27;2.30;5.00
429;DHT22;201;48.758;9.290;2024-03-07T04:58:52;2.30;5.00
429;DHT22;201;48.758;9.290;2024-03-07T05:01:20;2.30;5.00
429;DHT22;201;48.758;9.290;2024-03-07T05:03:45;2.20;4.90
429;DHT22;201;48.758;9.290;2024-03-07T05:06:11;2.20;5.00
429;DHT22;201;48.758;9.290;2024-03-07T05:08:37;2.20;4.90
429;DHT22;201;48.758;9.290;2024-03-07T05:11:03;2.20;5.00
429;DHT22;201;48.758;9.290;2024-03-07T05:13:29;2.20;4.90
429;DHT22;201;48.758;9.290;2024-03-07T05:15:56;2.20;4.90
429;DHT22;201;48.758;9.290;2024-03-07T05:18:22;2.10;4.80
429;DHT22;201;48.758;9.290;2024-03-07T05:20:48;2.10;4.60
429;DHT22;201;48.758;9.290;2024-03-07T05:23:14;2.10;4.90
429;DHT22;201;48.758;9.290;2024-03-07T05:25:39;2.10;4.90
429;DHT22;201;48.758;9.290;2024-03-07T05:28:05;2.00;4.80
429;DHT22;201;48.758;9.290;2024-03-07T05:30:31;2.00;4.80
429;DHT22;201;48.758;9.290;2024-03-07T05:32:58;2.00;4.80
429;DHT22;201;48.758;9.290;2024-03-07T05:35:24;2.00;4.80
429;DHT22;201;48.758;9.290;2024-03-07T05:37:49;1.90;4.70
429;DHT22;201;48.758;9.290;2024-03-07T05:40:16;1.90;4.70
429;DHT22;201;48.758;9.290;2024-03-07T05:42:41;1.90;4.70
429;DHT22;201;48.758;9.290;2024-03-07T05:45:07;1.90;4.70
429;DHT22;201;48.758;9.290;2024-03-07T05:47:33;1.90;4.70
429;DHT22;201;48.758;9.290;2024-03-07T05:49:59;1.90;4.70
429;DHT22;201;48.758;9.290;2024-03-07T05:52:24;1.80;4.70
429;DHT22;201;48.758;9.290;2024-03-07T05:54:50;1.90;4.80
429;DHT22;201;48.758;9.290;2024-03-07T05:57:16;1.90;4.80
429;DHT22;201;48.758;9.290;2024-03-07T05:59:41;1.80;4.70
429;DHT22;201;48.758;9.290;2024-03-07T06:02:07;1.80;4.70
429;DHT22;201;48.758;9.290;2024-03-07T06:04:32;1.80;5.00
429;DHT22;201;48.758;9.290;2024-03-07T06:06:59;1.80;5.30
429;DHT22;201;48.758;9.290;2024-03-07T06:09:25;1.80;4.90
429;DHT22;201;48.758;9.290;2024-03-07T06:11:52;1.90;4.80
429;DHT22;201;48.758;9.290;2024-03-07T06:14:17;1.90;4.70
429;DHT22;201;48.758;9.290;2024-03-07T06:16:43;1.90;4.70
429;DHT22;201;48.758;9.290;2024-03-07T06:19:09;2.00;4.80
429;DHT22;201;48.758;9.290;2024-03-07T06:21:36;2.00;4.80
429;DHT22;201;48.758;9.290;2024-03-07T06:24:02;2.00;4.80
429;DHT22;201;48.758;9.290;2024-03-07T06:26:32;2.00;4.80
429;DHT22;201;48.758;9.290;2024-03-07T06:29:10;2.10;4.40
429;DHT22;201;48.758;9.290;2024-03-07T06:31:39;2.10;4.10
429;DHT22;201;48.758;9.290;2024-03-07T06:34:04;2.20;4.10
429;DHT22;201;48.758;9.290;2024-03-07T06:36:30;2.30;4.10
429;DHT22;201;48.758;9.290;2024-03-07T06:38:56;2.40;3.70
429;DHT22;201;48.758;9.290;2024-03-07T06:41:21;2.30;3.40
429;DHT22;201;48.758;9.290;2024-03-07T06:43:47;2.40;2.80
429;DHT22;201;48.758;9.290;2024-03-07T06:46:15;2.40;2.90
429;DHT22;201;48.758;9.290;2024-03-07T06:48:44;2.50;2.70
429;DHT22;201;48.758;9.290;2024-03-07T06:51:10;2.50;2.80
429;DHT22;201;48.758;9.290;2024-03-07T06:53:36;2.60;2.90
429;DHT22;201;48.758;9.290;2024-03-07T06:56:01;2.60;2.50
429;DHT22;201;48.758;9.290;2024-03-07T06:58:27;2.60;1.00
429;DHT22;201;48.758;9.290;2024-03-07T07:00:53;2.70;1.00
429;DHT22;201;48.758;9.290;2024-03-07T07:03:23;2.70;1.00
429;DHT22;201;48.758;9.290;2024-03-07T07:05:49;2.90;1.00
429;DHT22;201;48.758;9.290;2024-03-07T07:08:15;3.20;1.00
429;DHT22;201;48.758;9.290;2024-03-07T07:10:41;3.30;1.00
429;DHT22;201;48.758;9.290;2024-03-07T07:13:08;3.40;1.00
429;DHT22;201;48.758;9.290;2024-03-07T07:15:33;3.50;1.00
429;DHT22;201;48.758;9.290;2024-03-07T07:17:59;3.60;1.00
429;DHT22;201;48.758;9.290;2024-03-07T07:20:27;3.60;1.00
429;DHT22;201;48.758;9.290;2024-03-07T07:22:55;3.60;1.00
429;DHT22;201;48.758;9.290;2024-03-07T07:25:22;3.80;1.00
429;DHT22;201;48.758;9.290;2024-03-07T07:27:50;3.90;1.00
429;DHT22;201;48.758;9.290;2024-03-07T07:30:17;4.00;1.00
429;DHT22;201;48.758;9.290;2024-03-07T07:32:44;4.20;1.00
429;DHT22;201;48.758;9.290;2024-03-07T07:35:11;4.50;1.00
429;DHT22;201;48.758;9.290;2024-03-07T07:37:49;4.70;1.00
429;DHT22;201;48.758;9.290;2024-03-07T07:40:18;5.00;1.00
429;DHT22;201;48.758;9.290;2024-03-07T07:42:45;5.70;1.00
429;DHT22;201;48.758;9.290;2024-03-07T07:45:12;6.60;1.00
429;DHT22;201;48.758;9.290;2024-03-07T07:47:42;7.50;1.00
429;DHT22;201;48.758;9.290;2024-03-07T07:50:13;8.70;1.00
429;DHT22;201;48.758;9.290;2024-03-07T07:52:50;10.50;1.00
429;DHT22;201;48.758;9.290;2024-03-07T07:55:17;10.70;1.00
429;DHT22;201;48.758;9.290;2024-03-07T07:57:44;10.10;1.00
429;DHT22;201;48.758;9.290;2024-03-07T08:00:14;9.40;1.00
429;DHT22;201;48.758;9.290;2024-03-07T08:02:53;8.90;1.00
429;DHT22;201;48.758;9.290;2024-03-07T08:05:20;8.20;1.00
429;DHT22;201;48.758;9.290;2024-03-07T08:07:49;7.80;1.00
429;DHT22;201;48.758;9.290;2024-03-07T08:10:15;7.10;1.00
429;DHT22;201;48.758;9.290;2024-03-07T08:12:41;6.70;1.00
429;DHT22;201;48.758;9.290;2024-03-07T08:15:09;6.30;1.00
429;DHT22;201;48.758;9.290;2024-03-07T08:17:42;6.20;1.00
429;DHT22;201;48.758;9.290;2024-03-07T08:20:13;6.00;1.00
429;DHT22;201;48.758;9.290;2024-03-07T08:22:39;6.10;1.00
429;DHT22;201;48.758;9.290;2024-03-07T08:25:09;6.10;1.00
429;DHT22;201;48.758;9.290;2024-03-07T08:27:39;5.90;1.00
429;DHT22;201;48.758;9.290;2024-03-07T08:30:06;5.80;1.00
429;DHT22;201;48.758;9.290;2024-03-07T08:32:41;5.90;1.00
429;DHT22;201;48.758;9.290;2024-03-07T08:35:08;6.00;1.00
429;DHT22;201;48.758;9.290;2024-03-07T08:37:40;6.00;1.00
429;DHT22;201;48.758;9.290;2024-03-07T08:40:08;6.10;1.00
429;DHT22;201;48.758;9.290;2024-03-07T08:42:35;6.10;1.00
429;DHT22;201;48.758;9.290;2024-03-07T08:45:02;6.20;1.00
429;DHT22;201;48.758;9.290;2024-03-07T08:47:34;6.30;1.00
429;DHT22;201;48.758;9.290;2024-03-07T08:50:01;6.40;1.00
429;DHT22;201;48.758;9.290;2024-03-07T08:52:27;6.60;1.00
429;DHT22;201;48.758;9.290;2024-03-07T08:54:54;6.70;1.00
429;DHT22;201;48.758;9.290;2024-03-07T08:57:20;6.60;1.00
429;DHT22;201;48.758;9.290;2024-03-07T08:59:47;6.80;1.00
429;DHT22;201;48.758;9.290;2024-03-07T09:02:13;6.80;1.00
429;DHT22;201;48.758;9.290;2024-03-07T09:04:38;6.80;1.00
429;DHT22;201;48.758;9.290;2024-03-07T09:07:05;6.80;1.00
429;DHT22;201;48.758;9.290;2024-03-07T09:09:34;7.00;1.00
429;DHT22;201;48.758;9.290;2024-03-07T09:12:00;6.90;1.00
429;DHT22;201;48.758;9.290;2024-03-07T09:14:30;6.70;1.00
429;DHT22;201;48.758;9.290;2024-03-07T09:16:56;6.60;1.00
429;DHT22;201;48.758;9.290;2024-03-07T09:19:22;6.70;1.00
429;DHT22;201;48.758;9.290;2024-03-07T09:21:51;6.60;1.00
429;DHT22;201;48.758;9.290;2024-03-07T09:24:18;6.60;1.00
429;DHT22;201;48.758;9.290;2024-03-07T09:26:49;6.70;1.00
429;DHT22;201;48.758;9.290;2024-03-07T09:29:16;7.00;1.00
429;DHT22;201;48.758;9.290;2024-03-07T09:31:43;7.30;1.00
429;DHT22;201;48.758;9.290;2024-03-07T09:34:08;7.50;1.00
429;DHT22;201;48.758;9.290;2024-03-07T09:36:34;7.40;1.00
429;DHT22;201;48.758;9.290;2024-03-07T09:38:59;7.20;1.00
429;DHT22;201;48.758;9.290;2024-03-07T09:41:26;7.50;1.00
429;DHT22;201;48.758;9.290;2024-03-07T09:43:52;8.00;1.00
429;DHT22;201;48.758;9.290;2024-03-07T09:46:22;8.90;1.00
429;DHT22;201;48.758;9.290;2024-03-07T09:48:49;10.10;1.00
429;DHT22;201;48.758;9.290;2024-03-07T09:51:17;10.60;1.00
429;DHT22;201;48.758;9.290;2024-03-07T09:53:45;10.10;1.00
429;DHT22;201;48.758;9.290;2024-03-07T09:56:12;9.70;1.00
429;DHT22;201;48.758;9.290;2024-03-07T09:58:40;9.30;1.00
429;DHT22;201;48.758;9.290;2024-03-07T10:01:06;9.40;1.00
429;DHT22;201;48.758;9.290;2024-03-07T10:03:35;11.20;1.00
429;DHT22;201;48.758;9.290;2024-03-07T10:06:02;14.40;1.00
429;DHT22;201;48.758;9.290;2024-03-07T10:08:28;17.70;1.00
429;DHT22;201;48.758;9.290;2024-03-07T10:10:56;20.10;1.00
429;DHT22;201;48.758;9.290;2024-03-07T10:13:22;20.10;1.00
429;DHT22;201;48.758;9.290;2024-03-07T10:15:48;16.70;1.00
429;DHT22;201;48.758;9.290;2024-03-07T10:18:14;14.80;1.00
429;DHT22;201;48.758;9.290;2024-03-07T10:20:42;13.70;1.00
429;DHT22;201;48.758;9.290;2024-03-07T10:23:08;12.40;1.00
429;DHT22;201;48.758;9.290;2024-03-07T10:25:33;11.60;1.00
429;DHT22;201;48.758;9.290;2024-03-07T10:27:59;10.70;1.00
429;DHT22;201;48.758;9.290;2024-03-07T10:30:27;9.80;1.00
429;DHT22;201;48.758;9.290;2024-03-07T10:32:57;9.20;1.00
429;DHT22;201;48.758;9.290;2024-03-07T10:35:23;9.00;1.00
429;DHT22;201;48.758;9.290;2024-03-07T10:37:53;8.60;1.00
429;DHT22;201;48.758;9.290;2024-03-07T10:40:19;8.40;1.00
429;DHT22;201;48.758;9.290;2024-03-07T10:42:48;8.20;1.00
429;DHT22;201;48.758;9.290;2024-03-07T10:45:21;8.20;1.00
429;DHT22;201;48.758;9.290;2024-03-07T10:47:58;8.30;1.00
429;DHT22;201;48.758;9.290;2024-03-07T10:50:39;8.40;1.00
429;DHT22;201;48.758;9.290;2024-03-07T10:58:45;8.20;1.00
429;DHT22;201;48.758;9.290;2024-03-07T11:01:14;8.20;1.00
429;DHT22;201;48.758;9.290;2024-03-07T11:03:39;8.20;1.00
429;DHT22;201;48.758;9.290;2024-03-07T11:06:07;8.10;1.00
429;DHT22;201;48.758;9.290;2024-03-07T11:08:37;8.00;1.00
429;DHT22;201;48.758;9.290;2024-03-07T11:11:03;7.90;1.00
429;DHT22;201;48.758;9.290;2024-03-07T11:13:30;8.00;1.00
429;DHT22;201;48.758;9.290;2024-03-07T11:15:56;8.20;1.00
429;DHT22;201;48.758;9.290;2024-03-07T11:18:24;8.80;1.00
429;DHT22;201;48.758;9.290;2024-03-07T11:20:50;9.10;1.00
429;DHT22;201;48.758;9.290;2024-03-07T11:23:31;9.10;1.00
429;DHT22;201;48.758;9.290;2024-03-07T11:26:15;9.60;1.00
429;DHT22;201;48.758;9.290;2024-03-07T11:28:42;9.90;1.00
429;DHT22;201;48.758;9.290;2024-03-07T11:34:14;10.60;1.00
429;DHT22;201;48.758;9.290;2024-03-07T11:36:46;10.70;1.00
429;DHT22;201;48.758;9.290;2024-03-07T11:39:46;10.20;1.00
429;DHT22;201;48.758;9.290;2024-03-07T11:42:25;10.00;1.00
429;DHT22;201;48.758;9.290;2024-03-07T11:44:52;9.50;1.00
429;DHT22;201;48.758;9.290;2024-03-07T11:47:18;9.30;1.00
429;DHT22;201;48.758;9.290;2024-03-07T11:49:44;9.00;1.00
429;DHT22;201;48.758;9.290;2024-03-07T11:52:14;9.00;1.00
429;DHT22;201;48.758;9.290;2024-03-07T11:54:42;8.90;1.00
429;DHT22;201;48.758;9.290;2024-03-07T11:57:18;8.90;1.00
429;DHT22;201;48.758;9.290;2024-03-07T11:59:58;9.00;1.00
429;DHT22;201;48.758;9.290;2024-03-07T12:02:26;9.00;1.00
429;DHT22;201;48.758;9.290;2024-03-07T12:04:52;9.00;1.00
429;DHT22;201;48.758;9.290;2024-03-07T12:07:18;9.00;1.00
429;DHT22;201;48.758;9.290;2024-03-07T12:09:44;9.10;1.00
429;DHT22;201;48.758;9.290;2024-03-07T12:12:16;9.00;1.00
429;DHT22;201;48.758;9.290;2024-03-07T12:14:46;8.90;1.00
429;DHT22;201;48.758;9.290;2024-03-07T12:17:13;9.00;1.00
429;DHT22;201;48.758;9.290;2024-03-07T12:19:41;8.90;1.00
429;DHT22;201;48.758;9.290;2024-03-07T12:22:09;8.50;1.00
429;DHT22;201;48.758;9.290;2024-03-07T12:24:40;8.50;1.00
429;DHT22;201;48.758;9.290;2024-03-07T12:27:11;8.50;1.00
429;DHT22;201;48.758;9.290;2024-03-07T12:29:40;8.70;1.00
429;DHT22;201;48.758;9.290;2024-03-07T12:32:08;8.70;1.00
429;DHT22;201;48.758;9.290;2024-03-07T12:34:36;8.70;1.00
429;DHT22;201;48.758;9.290;2024-03-07T12:37:08;8.70;1.00
429;DHT22;201;48.758;9.290;2024-03-07T12:39:34;8.80;1.00
429;DHT22;201;48.758;9.290;2024-03-07T12:42:12;8.90;1.00
429;DHT22;201;48.758;9.290;2024-03-07T12:44:43;8.80;1.00
429;DHT22;201;48.758;9.290;2024-03-07T12:47:15;8.80;1.00
429;DHT22;201;48.758;9.290;2024-03-07T12:49:42;8.70;1.00
429;DHT22;201;48.758;9.290;2024-03-07T12:52:08;8.60;1.00
429;DHT22;201;48.758;9.290;2024-03-07T12:54:37;8.60;1.00
429;DHT22;201;48.758;9.290;2024-03-07T12:57:06;8.60;1.00
429;DHT22;201;48.758;9.290;2024-03-07T12:59:40;8.50;1.00
429;DHT22;201;48.758;9.290;2024-03-07T13:02:06;8.30;1.00
429;DHT22;201;48.758;9.290;2024-03-07T13:04:33;8.50;1.00
429;DHT22;201;48.758;9.290;2024-03-07T13:06:58;8.50;1.00
429;DHT22;201;48.758;9.290;2024-03-07T13:09:32;8.60;1.00
429;DHT22;201;48.758;9.290;2024-03-07T13:11:58;8.70;1.00
429;DHT22;201;48.758;9.290;2024-03-07T13:14:32;8.70;1.00
429;DHT22;201;48.758;9.290;2024-03-07T13:17:07;8.70;1.00
429;DHT22;201;48.758;9.290;2024-03-07T13:19:33;8.60;1.00
429;DHT22;201;48.758;9.290;2024-03-07T13:21:58;8.50;1.00
429;DHT22;201;48.758;9.290;2024-03-07T13:24:25;8.40;1.00
429;DHT22;201;48.758;9.290;2024-03-07T13:26:52;8.30;1.00
429;DHT22;201;48.758;9.290;2024-03-07T13:29:18;8.30;1.00
429;DHT22;201;48.758;9.290;2024-03-07T13:31:50;8.30;1.00
429;DHT22;201;48.758;9.290;2024-03-07T13:34:16;8.40;1.00
429;DHT22;201;48.758;9.290;2024-03-07T13:36:42;8.50;1.00
429;DHT22;201;48.758;9.290;2024-03-07T13:39:09;8.60;1.00
429;DHT22;201;48.758;9.290;2024-03-07T13:41:42;8.40;1.00
429;DHT22;201;48.758;9.290;2024-03-07T13:44:07;8.40;1.00
429;DHT22;201;48.758;9.290;2024-03-07T13:46:33;8.50;1.00
429;DHT22;201;48.758;9.290;2024-03-07T13:49:00;8.40;1.00
429;DHT22;201;48.758;9.290;2024-03-07T13:51:33;8.60;1.00
429;DHT22;201;48.758;9.290;2024-03-07T13:54:01;8.50;1.00
429;DHT22;201;48.758;9.290;2024-03-07T13:59:51;8.50;1.00
429;DHT22;201;48.758;9.290;2024-03-07T14:17:13;8.70;1.00
429;DHT22;201;48.758;9.290;2024-03-07T14:23:26;8.70;1.00
429;DHT22;201;48.758;9.290;2024-03-07T14:31:58;8.70;1.00
429;DHT22;201;48.758;9.290;2024-03-07T14:34:37;8.60;1.00
429;DHT22;201;48.758;9.290;2024-03-07T14:37:46;8.50;1.00
429;DHT22;201;48.758;9.290;2024-03-07T14:40:16;8.70;1.00
429;DHT22;201;48.758;9.290;2024-03-07T14:42:46;8.90;1.00
429;DHT22;201;48.758;9.290;2024-03-07T14:45:18;9.00;1.00
429;DHT22;201;48.758;9.290;2024-03-07T14:47:45;9.10;1.00
429;DHT22;201;48.758;9.290;2024-03-07T14:50:12;9.10;1.00
429;DHT22;201;48.758;9.290;2024-03-07T14:52:38;9.00;1.00
429;DHT22;201;48.758;9.290;2024-03-07T14:55:08;8.90;1.00
429;DHT22;201;48.758;9.290;2024-03-07T14:57:33;8.90;1.00
429;DHT22;201;48.758;9.290;2024-03-07T14:59:59;8.80;1.00
429;DHT22;201;48.758;9.290;2024-03-07T15:02:25;8.70;1.00
429;DHT22;201;48.758;9.290;2024-03-07T15:04:51;8.60;1.00
429;DHT22;201;48.758;9.290;2024-03-07T15:07:18;8.70;1.00
429;DHT22;201;48.758;9.290;2024-03-07T15:09:49;8.80;1.00
429;DHT22;201;48.758;9.290;2024-03-07T15:12:15;8.80;1.00
429;DHT22;201;48.758;9.290;2024-03-07T15:14:41;8.70;1.00
429;DHT22;201;48.758;9.290;2024-03-07T15:17:07;8.80;1.00
429;DHT22;201;48.758;9.290;2024-03-07T15:19:33;8.80;1.00
429;DHT22;201;48.758;9.290;2024-03-07T15:22:00;8.70;1.00
429;DHT22;201;48.758;9.290;2024-03-07T15:24:28;8.60;1.00
429;DHT22;201;48.758;9.290;2024-03-07T15:26:54;8.60;1.00
429;DHT22;201;48.758;9.290;2024-03-07T15:29:20;8.70;1.00
429;DHT22;201;48.758;9.290;2024-03-07T15:31:48;8.70;1.00
429;DHT22;201;48.758;9.290;2024-03-07T15:34:15;8.70;1.00
429;DHT22;201;48.758;9.290;2024-03-07T15:36:42;8.70;1.00
429;DHT22;201;48.758;9.290;2024-03-07T15:39:07;8.70;1.00
429;DHT22;201;48.758;9.290;2024-03-07T15:41:45;8.60;1.00
429;DHT22;201;48.758;9.290;2024-03-07T15:44:11;8.60;1.00
429;DHT22;201;48.758;9.290;2024-03-07T15:46:37;8.60;1.00
429;DHT22;201;48.758;9.290;2024-03-07T15:49:03;8.50;1.00
429;DHT22;201;48.758;9.290;2024-03-07T15:51:29;8.40;1.00
429;DHT22;201;48.758;9.290;2024-03-07T15:53:54;8.30;1.00
429;DHT22;201;48.758;9.290;2024-03-07T15:56:20;8.20;1.00
429;DHT22;201;48.758;9.290;2024-03-07T15:58:45;8.10;1.00
429;DHT22;201;48.758;9.290;2024-03-07T16:01:11;8.10;1.00
429;DHT22;201;48.758;9.290;2024-03-07T16:03:36;8.10;1.00
429;DHT22;201;48.758;9.290;2024-03-07T16:06:02;8.00;1.00
429;DHT22;201;48.758;9.290;2024-03-07T16:08:30;7.90;1.00
429;DHT22;201;48.758;9.290;2024-03-07T16:10:56;7.80;1.00
429;DHT22;201;48.758;9.290;2024-03-07T16:13:22;7.70;1.00
429;DHT22;201;48.758;9.290;2024-03-07T16:15:49;7.50;1.00
429;DHT22;201;48.758;9.290;2024-03-07T16:18:15;7.50;1.00
429;DHT22;201;48.758;9.290;2024-03-07T16:20:41;7.50;1.00
429;DHT22;201;48.758;9.290;2024-03-07T16:23:07;7.50;1.00
429;DHT22;201;48.758;9.290;2024-03-07T16:25:33;7.40;1.00
429;DHT22;201;48.758;9.290;2024-03-07T16:27:59;7.40;1.00
429;DHT22;201;48.758;9.290;2024-03-07T16:30:26;7.40;1.00
429;DHT22;201;48.758;9.290;2024-03-07T16:32:52;7.40;1.00
429;DHT22;201;48.758;9.290;2024-03-07T16:35:26;7.40;1.00
429;DHT22;201;48.758;9.290;2024-03-07T16:37:52;7.40;1.00
429;DHT22;201;48.758;9.290;2024-03-07T16:40:22;7.40;1.00
429;DHT22;201;48.758;9.290;2024-03-07T16:42:49;7.40;1.00
429;DHT22;201;48.758;9.290;2024-03-07T16:45:35;7.30;1.00
429;DHT22;201;48.758;9.290;2024-03-07T16:48:02;7.30;1.00
429;DHT22;201;48.758;9.290;2024-03-07T16:50:30;7.20;1.00
429;DHT22;201;48.758;9.290;2024-03-07T16:53:00;7.20;1.00
429;DHT22;201;48.758;9.290;2024-03-07T16:55:30;7.20;1.00
429;DHT22;201;48.758;9.290;2024-03-07T16:57:56;7.20;1.00
429;DHT22;201;48.758;9.290;2024-03-07T17:00:22;7.20;1.00
429;DHT22;201;48.758;9.290;2024-03-07T17:03:02;7.20;1.00
429;DHT22;201;48.758;9.290;2024-03-07T17:05:31;7.20;1.00
429;DHT22;201;48.758;9.290;2024-03-07T17:08:00;7.20;1.00
429;DHT22;201;48.758;9.290;2024-03-07T17:10:26;7.20;1.00
429;DHT22;201;48.758;9.290;2024-03-07T17:12:52;7.10;1.00
429;DHT22;201;48.758;9.290;2024-03-07T17:15:22;7.10;1.00
429;DHT22;201;48.758;9.290;2024-03-07T17:17:52;7.10;1.00
429;DHT22;201;48.758;9.290;2024-03-07T17:20:23;7.00;1.00
429;DHT22;201;48.758;9.290;2024-03-07T17:22:50;7.00;1.00
429;DHT22;201;48.758;9.290;2024-03-07T17:25:17;7.00;1.00
429;DHT22;201;48.758;9.290;2024-03-07T17:27:44;7.00;1.00
429;DHT22;201;48.758;9.290;2024-03-07T17:30:15;7.00;1.00
429;DHT22;201;48.758;9.290;2024-03-07T17:32:41;7.00;1.00
429;DHT22;201;48.758;9.290;2024-03-07T17:35:08;7.00;1.00
429;DHT22;201;48.758;9.290;2024-03-07T17:37:37;7.00;1.00
429;DHT22;201;48.758;9.290;2024-03-07T17:40:03;7.00;1.00
429;DHT22;201;48.758;9.290;2024-03-07T17:42:29;6.90;1.00
429;DHT22;201;48.758;9.290;2024-03-07T17:44:55;6.90;1.00
429;DHT22;201;48.758;9.290;2024-03-07T17:47:21;6.90;1.00